sensor_id;sensor_type;location;lat;lon;timestamp;pressure;altitude;pressure_sealevel;temperature;humidity
74079;BME280;62437;51.544;-3.276;2022-12-20T00:00:51;99571.26;;;7.35;62.91
74079;BME280;62437;51.544;-3.276;2022-12-20T00:03:17;99573.48;;;7.16;61.76
74079;BME280;62437;51.544;-3.276;2022-12-20T00:05:43;99578.79;;;7.02;65.17
74079;BME280;62437;51.544;-3.276;2022-12-20T00:08:09;99579.21;;;6.46;66.21
74079;BME280;62437;51.544;-3.276;2022-12-20T00:10:35;99573.90;;;6.87;63.74
74079;BME280;62437;51.544;-3.276;2022-12-20T00:13:00;99574.23;;;6.18;75.25
74079;BME280;62437;51.544;-3.276;2022-12-20T00:15:26;99574.40;;;6.61;73.37
74079;BME280;62437;51.544;-3.276;2022-12-20T00:17:51;99575.95;;;7.04;65.22
74079;BME280;62437;51.544;-3.276;2022-12-20T00:20:17;99574.49;;;6.90;64.28
74079;BME280;62437;51.544;-3.276;2022-12-20T00:22:42;99579.65;;;7.13;63.08
74079;BME280;62437;51.544;-3.276;2022-12-20T00:25:08;99575.13;;;7.31;62.99
74079;BME280;62437;51.544;-3.276;2022-12-20T00:27:34;99564.29;;;7.35;63.53
74079;BME280;62437;51.544;-3.276;2022-12-20T00:30:00;99548.53;;;7.58;60.52
74079;BME280;62437;51.544;-3.276;2022-12-20T00:32:27;99552.40;;;7.36;61.87
74079;BME280;62437;51.544;-3.276;2022-12-20T00:34:51;99549.57;;;8.55;59.73
74079;BME280;62437;51.544;-3.276;2022-12-20T00:37:17;99547.15;;;7.96;59.51
74079;BME280;62437;51.544;-3.276;2022-12-20T00:39:43;99550.78;;;8.07;60.04
74079;BME280;62437;51.544;-3.276;2022-12-20T00:42:08;99556.91;;;7.01;63.46
74079;BME280;62437;51.544;-3.276;2022-12-20T00:44:34;99566.35;;;7.64;60.98
74079;BME280;62437;51.544;-3.276;2022-12-20T00:47:00;99571.38;;;8.05;59.98
74079;BME280;62437;51.544;-3.276;2022-12-20T00:49:26;99552.17;;;7.96;59.70
74079;BME280;62437;51.544;-3.276;2022-12-20T00:51:51;99540.88;;;7.51;60.42
74079;BME280;62437;51.544;-3.276;2022-12-20T00:54:17;99537.46;;;7.84;59.63
74079;BME280;62437;51.544;-3.276;2022-12-20T00:56:43;99540.18;;;7.99;58.01
74079;BME280;62437;51.544;-3.276;2022-12-20T00:59:08;99539.49;;;8.24;59.17
74079;BME280;62437;51.544;-3.276;2022-12-20T01:01:34;99534.19;;;7.75;59.91
74079;BME280;62437;51.544;-3.276;2022-12-20T01:04:01;99551.82;;;7.84;59.81
74079;BME280;62437;51.544;-3.276;2022-12-20T01:06:26;99543.70;;;7.30;62.17
74079;BME280;62437;51.544;-3.276;2022-12-20T01:08:52;99534.37;;;6.86;62.93
74079;BME280;62437;51.544;-3.276;2022-12-20T01:11:18;99527.61;;;6.35;73.97
74079;BME280;62437;51.544;-3.276;2022-12-20T01:13:46;99521.15;;;6.37;69.32
74079;BME280;62437;51.544;-3.276;2022-12-20T01:16:11;99516.88;;;6.83;63.33
74079;BME280;62437;51.544;-3.276;2022-12-20T01:18:34;99521.38;;;6.82;67.97
74079;BME280;62437;51.544;-3.276;2022-12-20T01:21:01;99510.90;;;6.88;64.32
74079;BME280;62437;51.544;-3.276;2022-12-20T01:23:26;99516.02;;;6.14;69.66
74079;BME280;62437;51.544;-3.276;2022-12-20T01:25:51;99532.01;;;7.03;64.17
74079;BME280;62437;51.544;-3.276;2022-12-20T01:28:17;99539.28;;;5.29;79.52
74079;BME280;62437;51.544;-3.276;2022-12-20T01:30:43;99521.90;;;6.31;67.09
74079;BME280;62437;51.544;-3.276;2022-12-20T01:33:09;99506.34;;;6.04;68.82
74079;BME280;62437;51.544;-3.276;2022-12-20T01:35:34;99548.67;;;6.47;66.50
74079;BME280;62437;51.544;-3.276;2022-12-20T01:38:00;99551.74;;;5.26;76.52
74079;BME280;62437;51.544;-3.276;2022-12-20T01:40:26;99521.41;;;6.99;65.49
74079;BME280;62437;51.544;-3.276;2022-12-20T01:42:52;99551.60;;;5.44;76.70
74079;BME280;62437;51.544;-3.276;2022-12-20T01:45:24;99574.34;;;4.79;81.11
74079;BME280;62437;51.544;-3.276;2022-12-20T01:47:43;99576.55;;;5.82;70.93
74079;BME280;62437;51.544;-3.276;2022-12-20T01:50:09;99576.59;;;6.01;69.02
74079;BME280;62437;51.544;-3.276;2022-12-20T01:52:37;99580.60;;;4.57;83.10
74079;BME280;62437;51.544;-3.276;2022-12-20T01:55:05;99578.20;;;4.78;77.27
74079;BME280;62437;51.544;-3.276;2022-12-20T01:57:32;99579.49;;;5.62;75.70
74079;BME280;62437;51.544;-3.276;2022-12-20T01:59:53;99593.93;;;4.73;81.02
74079;BME280;62437;51.544;-3.276;2022-12-20T02:02:18;99597.17;;;4.85;74.55
74079;BME280;62437;51.544;-3.276;2022-12-20T02:04:43;99613.48;;;4.05;84.36
74079;BME280;62437;51.544;-3.276;2022-12-20T02:07:14;99626.07;;;4.47;76.05
74079;BME280;62437;51.544;-3.276;2022-12-20T02:09:36;99643.32;;;3.77;83.85
74079;BME280;62437;51.544;-3.276;2022-12-20T02:12:07;99641.50;;;4.21;81.85
74079;BME280;62437;51.544;-3.276;2022-12-20T02:14:38;99641.85;;;5.29;71.70
74079;BME280;62437;51.544;-3.276;2022-12-20T02:16:59;99630.37;;;4.90;73.86
74079;BME280;62437;51.544;-3.276;2022-12-20T02:21:45;99618.86;;;4.81;78.28
74079;BME280;62437;51.544;-3.276;2022-12-20T02:31:28;99596.85;;;6.62;64.81
74079;BME280;62437;51.544;-3.276;2022-12-20T02:33:51;99614.37;;;7.17;64.88
74079;BME280;62437;51.544;-3.276;2022-12-20T02:36:17;99625.06;;;4.07;76.71
74079;BME280;62437;51.544;-3.276;2022-12-20T02:38:43;99613.16;;;4.83;76.39
74079;BME280;62437;51.544;-3.276;2022-12-20T02:41:12;99601.46;;;6.53;67.14
74079;BME280;62437;51.544;-3.276;2022-12-20T02:43:35;99598.14;;;6.18;66.68
74079;BME280;62437;51.544;-3.276;2022-12-20T02:45:59;99596.81;;;5.38;72.33
74079;BME280;62437;51.544;-3.276;2022-12-20T02:48:26;99587.41;;;6.50;64.44
74079;BME280;62437;51.544;-3.276;2022-12-20T02:50:53;99589.29;;;5.09;73.98
74079;BME280;62437;51.544;-3.276;2022-12-20T02:53:16;99586.04;;;6.53;66.50
74079;BME280;62437;51.544;-3.276;2022-12-20T02:55:45;99572.82;;;6.40;65.28
74079;BME280;62437;51.544;-3.276;2022-12-20T02:58:14;99568.19;;;5.94;69.86
74079;BME280;62437;51.544;-3.276;2022-12-20T03:00:38;99560.43;;;4.71;74.13
74079;BME280;62437;51.544;-3.276;2022-12-20T03:02:58;99552.66;;;4.44;75.94
74079;BME280;62437;51.544;-3.276;2022-12-20T03:05:25;99542.34;;;6.43;65.23
74079;BME280;62437;51.544;-3.276;2022-12-20T03:07:49;99540.94;;;4.72;74.02
74079;BME280;62437;51.544;-3.276;2022-12-20T03:10:15;99538.00;;;6.31;65.99
74079;BME280;62437;51.544;-3.276;2022-12-20T03:12:40;99548.53;;;6.89;63.21
74079;BME280;62437;51.544;-3.276;2022-12-20T03:15:06;99548.31;;;5.83;69.81
74079;BME280;62437;51.544;-3.276;2022-12-20T03:17:31;99563.77;;;4.95;72.75
74079;BME280;62437;51.544;-3.276;2022-12-20T03:19:57;99573.54;;;5.35;69.48
74079;BME280;62437;51.544;-3.276;2022-12-20T03:22:23;99582.68;;;5.52;72.19
74079;BME280;62437;51.544;-3.276;2022-12-20T03:24:49;99592.74;;;5.29;71.08
74079;BME280;62437;51.544;-3.276;2022-12-20T03:27:14;99601.41;;;4.76;73.04
74079;BME280;62437;51.544;-3.276;2022-12-20T03:29:40;99610.40;;;4.31;74.69
74079;BME280;62437;51.544;-3.276;2022-12-20T03:32:06;99620.04;;;5.94;68.21
74079;BME280;62437;51.544;-3.276;2022-12-20T03:34:31;99628.13;;;5.65;70.20
74079;BME280;62437;51.544;-3.276;2022-12-20T03:36:57;99630.54;;;6.12;68.43
74079;BME280;62437;51.544;-3.276;2022-12-20T03:39:23;99634.89;;;3.67;77.83
74079;BME280;62437;51.544;-3.276;2022-12-20T03:41:49;99636.54;;;6.43;65.27
74079;BME280;62437;51.544;-3.276;2022-12-20T03:44:14;99645.89;;;6.62;64.06
74079;BME280;62437;51.544;-3.276;2022-12-20T03:46:40;99654.92;;;5.49;68.39
74079;BME280;62437;51.544;-3.276;2022-12-20T03:49:06;99656.09;;;7.12;63.59
74079;BME280;62437;51.544;-3.276;2022-12-20T03:51:31;99660.31;;;6.96;63.21
74079;BME280;62437;51.544;-3.276;2022-12-20T03:53:57;99676.00;;;6.82;62.69
74079;BME280;62437;51.544;-3.276;2022-12-20T03:56:23;99679.30;;;6.14;64.27
74079;BME280;62437;51.544;-3.276;2022-12-20T03:58:49;99676.27;;;5.80;68.12
74079;BME280;62437;51.544;-3.276;2022-12-20T04:01:18;99679.23;;;4.05;70.37
74079;BME280;62437;51.544;-3.276;2022-12-20T04:03:40;99678.18;;;6.24;65.90
74079;BME280;62437;51.544;-3.276;2022-12-20T04:06:06;99684.76;;;3.85;73.14
74079;BME280;62437;51.544;-3.276;2022-12-20T04:08:31;99686.67;;;5.62;67.65
74079;BME280;62437;51.544;-3.276;2022-12-20T04:10:57;99688.25;;;6.41;64.14
74079;BME280;62437;51.544;-3.276;2022-12-20T04:13:23;99695.55;;;7.07;62.32
74079;BME280;62437;51.544;-3.276;2022-12-20T04:15:49;99701.00;;;7.11;61.50
74079;BME280;62437;51.544;-3.276;2022-12-20T04:18:14;99710.84;;;5.55;69.24
74079;BME280;62437;51.544;-3.276;2022-12-20T04:20:40;99722.74;;;5.72;67.72
74079;BME280;62437;51.544;-3.276;2022-12-20T04:23:06;99712.42;;;6.07;67.38
74079;BME280;62437;51.544;-3.276;2022-12-20T04:25:32;99712.11;;;5.88;66.75
74079;BME280;62437;51.544;-3.276;2022-12-20T04:27:57;99706.77;;;6.32;64.99
74079;BME280;62437;51.544;-3.276;2022-12-20T04:30:23;99703.21;;;7.10;61.64
74079;BME280;62437;51.544;-3.276;2022-12-20T04:32:49;99705.80;;;7.68;61.77
74079;BME280;62437;51.544;-3.276;2022-12-20T04:35:15;99716.88;;;6.76;65.53
74079;BME280;62437;51.544;-3.276;2022-12-20T04:37:40;99719.74;;;6.16;65.69
74079;BME280;62437;51.544;-3.276;2022-12-20T04:40:07;99729.55;;;4.80;74.03
74079;BME280;62437;51.544;-3.276;2022-12-20T04:42:32;99729.15;;;5.80;67.65
74079;BME280;62437;51.544;-3.276;2022-12-20T04:44:57;99734.19;;;6.16;65.28
74079;BME280;62437;51.544;-3.276;2022-12-20T04:47:23;99727.03;;;6.14;64.87
74079;BME280;62437;51.544;-3.276;2022-12-20T04:49:49;99729.46;;;6.89;61.51
74079;BME280;62437;51.544;-3.276;2022-12-20T04:52:15;99728.17;;;6.67;62.47
74079;BME280;62437;51.544;-3.276;2022-12-20T04:54:40;99732.71;;;7.27;61.09
74079;BME280;62437;51.544;-3.276;2022-12-20T04:57:06;99737.47;;;6.75;61.88
74079;BME280;62437;51.544;-3.276;2022-12-20T04:59:32;99740.34;;;6.82;63.30
74079;BME280;62437;51.544;-3.276;2022-12-20T05:01:57;99746.92;;;7.35;61.66
74079;BME280;62437;51.544;-3.276;2022-12-20T05:04:23;99749.09;;;6.92;61.69
74079;BME280;62437;51.544;-3.276;2022-12-20T05:06:49;99752.32;;;6.51;63.64
74079;BME280;62437;51.544;-3.276;2022-12-20T05:09:14;99750.17;;;5.71;70.07
74079;BME280;62437;51.544;-3.276;2022-12-20T05:11:40;99756.64;;;5.11;71.64
74079;BME280;62437;51.544;-3.276;2022-12-20T05:14:06;99757.71;;;5.41;71.91
74079;BME280;62437;51.544;-3.276;2022-12-20T05:16:32;99752.70;;;6.35;65.53
74079;BME280;62437;51.544;-3.276;2022-12-20T05:18:57;99750.52;;;6.51;63.79
74079;BME280;62437;51.544;-3.276;2022-12-20T05:21:23;99757.40;;;6.31;64.46
74079;BME280;62437;51.544;-3.276;2022-12-20T05:23:49;99757.57;;;6.62;64.42
74079;BME280;62437;51.544;-3.276;2022-12-20T05:26:14;99757.94;;;6.58;62.93
74079;BME280;62437;51.544;-3.276;2022-12-20T05:28:40;99763.23;;;6.27;63.91
74079;BME280;62437;51.544;-3.276;2022-12-20T05:31:06;99767.40;;;5.44;69.15
74079;BME280;62437;51.544;-3.276;2022-12-20T05:33:32;99768.42;;;6.35;64.68
74079;BME280;62437;51.544;-3.276;2022-12-20T05:35:57;99764.05;;;6.62;63.86
74079;BME280;62437;51.544;-3.276;2022-12-20T05:38:23;99769.20;;;5.97;65.14
74079;BME280;62437;51.544;-3.276;2022-12-20T05:40:50;99769.99;;;5.66;71.60
74079;BME280;62437;51.544;-3.276;2022-12-20T05:43:15;99777.25;;;5.14;75.11
74079;BME280;62437;51.544;-3.276;2022-12-20T05:45:45;99780.86;;;5.50;66.97
74079;BME280;62437;51.544;-3.276;2022-12-20T05:48:06;99778.24;;;5.98;65.78
74079;BME280;62437;51.544;-3.276;2022-12-20T05:50:32;99785.78;;;5.53;67.38
74079;BME280;62437;51.544;-3.276;2022-12-20T05:52:58;99791.29;;;5.12;68.77
74079;BME280;62437;51.544;-3.276;2022-12-20T05:55:23;99794.88;;;5.72;66.69
74079;BME280;62437;51.544;-3.276;2022-12-20T05:57:49;99799.93;;;5.28;73.76
74079;BME280;62437;51.544;-3.276;2022-12-20T06:00:16;99801.14;;;5.44;67.97
74079;BME280;62437;51.544;-3.276;2022-12-20T06:02:40;99805.42;;;5.78;67.77
74079;BME280;62437;51.544;-3.276;2022-12-20T06:05:07;99807.89;;;5.50;68.11
74079;BME280;62437;51.544;-3.276;2022-12-20T06:07:32;99810.51;;;5.54;68.10
74079;BME280;62437;51.544;-3.276;2022-12-20T06:09:58;99812.77;;;5.27;67.92
74079;BME280;62437;51.544;-3.276;2022-12-20T06:12:24;99815.08;;;5.36;69.55
74079;BME280;62437;51.544;-3.276;2022-12-20T06:14:49;99822.57;;;5.31;68.93
74079;BME280;62437;51.544;-3.276;2022-12-20T06:17:15;99824.24;;;5.13;69.62
74079;BME280;62437;51.544;-3.276;2022-12-20T06:19:41;99826.25;;;5.62;67.72
74079;BME280;62437;51.544;-3.276;2022-12-20T06:22:07;99830.23;;;6.00;66.76
74079;BME280;62437;51.544;-3.276;2022-12-20T06:24:32;99837.93;;;5.87;67.19
74079;BME280;62437;51.544;-3.276;2022-12-20T06:26:58;99842.07;;;5.16;67.75
74079;BME280;62437;51.544;-3.276;2022-12-20T06:29:24;99846.71;;;5.51;68.40
74079;BME280;62437;51.544;-3.276;2022-12-20T06:31:50;99854.86;;;5.84;67.37
74079;BME280;62437;51.544;-3.276;2022-12-20T06:34:15;99860.25;;;6.35;65.51
74079;BME280;62437;51.544;-3.276;2022-12-20T06:36:41;99859.50;;;6.68;64.06
74079;BME280;62437;51.544;-3.276;2022-12-20T06:39:07;99855.30;;;7.21;62.60
74079;BME280;62437;51.544;-3.276;2022-12-20T06:41:32;99853.70;;;7.31;61.83
74079;BME280;62437;51.544;-3.276;2022-12-20T06:43:58;99853.56;;;7.04;61.56
74079;BME280;62437;51.544;-3.276;2022-12-20T06:46:24;99857.03;;;6.89;61.45
74079;BME280;62437;51.544;-3.276;2022-12-20T06:48:50;99861.78;;;7.04;61.36
74079;BME280;62437;51.544;-3.276;2022-12-20T06:51:15;99864.08;;;7.19;60.95
74079;BME280;62437;51.544;-3.276;2022-12-20T06:53:41;99868.00;;;7.50;60.25
74079;BME280;62437;51.544;-3.276;2022-12-20T06:56:07;99873.09;;;6.76;62.62
74079;BME280;62437;51.544;-3.276;2022-12-20T06:58:33;99874.95;;;7.80;59.17
74079;BME280;62437;51.544;-3.276;2022-12-20T07:00:58;99876.33;;;7.77;59.24
74079;BME280;62437;51.544;-3.276;2022-12-20T07:03:24;99877.68;;;7.62;59.30
74079;BME280;62437;51.544;-3.276;2022-12-20T07:05:51;99880.03;;;7.45;59.27
74079;BME280;62437;51.544;-3.276;2022-12-20T07:08:16;99882.48;;;7.20;60.33
74079;BME280;62437;51.544;-3.276;2022-12-20T07:10:41;99888.16;;;7.08;61.04
74079;BME280;62437;51.544;-3.276;2022-12-20T07:13:07;99885.97;;;6.78;60.26
74079;BME280;62437;51.544;-3.276;2022-12-20T07:15:33;99886.06;;;7.22;59.24
74079;BME280;62437;51.544;-3.276;2022-12-20T07:17:59;99887.02;;;7.32;58.47
74079;BME280;62437;51.544;-3.276;2022-12-20T07:20:24;99891.27;;;6.97;58.99
74079;BME280;62437;51.544;-3.276;2022-12-20T07:22:50;99890.91;;;7.15;58.56
74079;BME280;62437;51.544;-3.276;2022-12-20T07:25:16;99896.12;;;6.76;60.08
74079;BME280;62437;51.544;-3.276;2022-12-20T07:27:42;99899.89;;;6.65;59.59
74079;BME280;62437;51.544;-3.276;2022-12-20T07:30:08;99906.22;;;6.47;60.41
74079;BME280;62437;51.544;-3.276;2022-12-20T07:32:33;99909.50;;;6.32;60.69
74079;BME280;62437;51.544;-3.276;2022-12-20T07:34:59;99909.55;;;6.35;60.75
74079;BME280;62437;51.544;-3.276;2022-12-20T07:37:25;99908.13;;;6.43;60.04
74079;BME280;62437;51.544;-3.276;2022-12-20T07:39:50;99911.68;;;6.67;59.38
74079;BME280;62437;51.544;-3.276;2022-12-20T07:42:16;99913.48;;;5.68;63.62
74079;BME280;62437;51.544;-3.276;2022-12-20T07:44:42;99917.48;;;6.63;59.81
74079;BME280;62437;51.544;-3.276;2022-12-20T07:47:07;99923.11;;;6.75;59.55
74079;BME280;62437;51.544;-3.276;2022-12-20T07:49:33;99924.59;;;6.74;59.10
74079;BME280;62437;51.544;-3.276;2022-12-20T07:52:00;99929.42;;;5.91;60.43
74079;BME280;62437;51.544;-3.276;2022-12-20T07:54:29;99930.26;;;5.80;61.51
74079;BME280;62437;51.544;-3.276;2022-12-20T07:56:52;99935.10;;;5.86;60.90
74079;BME280;62437;51.544;-3.276;2022-12-20T07:59:20;99938.56;;;6.12;60.85
74079;BME280;62437;51.544;-3.276;2022-12-20T08:01:44;99942.33;;;6.19;60.88
74079;BME280;62437;51.544;-3.276;2022-12-20T08:04:14;99947.03;;;5.77;61.19
74079;BME280;62437;51.544;-3.276;2022-12-20T08:06:37;99949.38;;;6.11;60.39
74079;BME280;62437;51.544;-3.276;2022-12-20T08:09:02;99951.08;;;5.92;61.32
74079;BME280;62437;51.544;-3.276;2022-12-20T08:11:27;99955.84;;;5.52;61.76
74079;BME280;62437;51.544;-3.276;2022-12-20T08:13:51;99957.16;;;5.54;63.06
74079;BME280;62437;51.544;-3.276;2022-12-20T08:16:17;99957.54;;;5.54;61.69
74079;BME280;62437;51.544;-3.276;2022-12-20T08:18:42;99964.41;;;5.32;63.17
74079;BME280;62437;51.544;-3.276;2022-12-20T08:21:08;99963.53;;;5.84;61.67
74079;BME280;62437;51.544;-3.276;2022-12-20T08:23:34;99964.45;;;6.10;61.35
74079;BME280;62437;51.544;-3.276;2022-12-20T08:26:00;99964.43;;;4.97;65.05
74079;BME280;62437;51.544;-3.276;2022-12-20T08:28:25;99973.94;;;6.07;61.41
74079;BME280;62437;51.544;-3.276;2022-12-20T08:30:51;99975.76;;;6.07;61.18
74079;BME280;62437;51.544;-3.276;2022-12-20T08:33:17;99975.70;;;6.21;60.89
74079;BME280;62437;51.544;-3.276;2022-12-20T08:35:43;99977.63;;;6.58;59.59
74079;BME280;62437;51.544;-3.276;2022-12-20T08:38:08;99980.74;;;5.91;63.02
74079;BME280;62437;51.544;-3.276;2022-12-20T08:40:34;99987.90;;;6.33;61.21
74079;BME280;62437;51.544;-3.276;2022-12-20T08:43:00;99986.62;;;5.94;62.30
74079;BME280;62437;51.544;-3.276;2022-12-20T08:45:26;99992.89;;;6.00;62.82
74079;BME280;62437;51.544;-3.276;2022-12-20T08:47:52;99995.26;;;6.13;61.17
74079;BME280;62437;51.544;-3.276;2022-12-20T08:50:17;100001.61;;;6.31;60.15
74079;BME280;62437;51.544;-3.276;2022-12-20T08:52:43;100005.88;;;6.52;60.03
74079;BME280;62437;51.544;-3.276;2022-12-20T08:55:09;100007.89;;;6.27;60.72
74079;BME280;62437;51.544;-3.276;2022-12-20T08:57:34;100009.63;;;6.29;61.34
74079;BME280;62437;51.544;-3.276;2022-12-20T09:00:00;100015.26;;;5.71;61.79
74079;BME280;62437;51.544;-3.276;2022-12-20T09:02:26;100019.94;;;5.65;62.28
74079;BME280;62437;51.544;-3.276;2022-12-20T09:04:51;100019.95;;;5.67;62.37
74079;BME280;62437;51.544;-3.276;2022-12-20T09:07:17;100022.13;;;5.31;63.56
74079;BME280;62437;51.544;-3.276;2022-12-20T09:09:43;100024.22;;;5.63;62.48
74079;BME280;62437;51.544;-3.276;2022-12-20T09:12:09;100029.19;;;5.44;63.88
74079;BME280;62437;51.544;-3.276;2022-12-20T09:14:34;100031.69;;;5.42;63.63
74079;BME280;62437;51.544;-3.276;2022-12-20T09:17:00;100032.30;;;5.47;64.02
74079;BME280;62437;51.544;-3.276;2022-12-20T09:19:26;100039.48;;;4.87;67.19
74079;BME280;62437;51.544;-3.276;2022-12-20T09:21:52;100042.32;;;5.56;65.84
74079;BME280;62437;51.544;-3.276;2022-12-20T09:24:17;100042.99;;;5.26;66.30
74079;BME280;62437;51.544;-3.276;2022-12-20T09:26:43;100042.80;;;5.01;66.43
74079;BME280;62437;51.544;-3.276;2022-12-20T09:29:09;100045.18;;;5.51;64.45
74079;BME280;62437;51.544;-3.276;2022-12-20T09:31:35;100046.55;;;5.44;65.20
74079;BME280;62437;51.544;-3.276;2022-12-20T09:34:00;100047.96;;;5.40;65.55
74079;BME280;62437;51.544;-3.276;2022-12-20T09:36:28;100046.09;;;5.62;64.80
74079;BME280;62437;51.544;-3.276;2022-12-20T09:38:53;100049.07;;;5.47;65.48
74079;BME280;62437;51.544;-3.276;2022-12-20T09:41:24;100050.17;;;5.84;65.52
74079;BME280;62437;51.544;-3.276;2022-12-20T09:43:43;100055.27;;;5.10;66.03
74079;BME280;62437;51.544;-3.276;2022-12-20T09:46:11;100059.94;;;5.65;64.67
74079;BME280;62437;51.544;-3.276;2022-12-20T09:48:37;100062.87;;;5.56;66.34
74079;BME280;62437;51.544;-3.276;2022-12-20T09:51:09;100067.41;;;5.50;65.99
74079;BME280;62437;51.544;-3.276;2022-12-20T09:53:34;100066.29;;;6.00;65.44
74079;BME280;62437;51.544;-3.276;2022-12-20T09:55:58;100068.23;;;5.49;66.25
74079;BME280;62437;51.544;-3.276;2022-12-20T09:58:28;100070.86;;;5.91;64.67
74079;BME280;62437;51.544;-3.276;2022-12-20T10:00:45;100070.78;;;5.55;64.03
74079;BME280;62437;51.544;-3.276;2022-12-20T10:03:16;100070.49;;;5.66;65.36
74079;BME280;62437;51.544;-3.276;2022-12-20T10:05:41;100069.38;;;5.95;64.61
74079;BME280;62437;51.544;-3.276;2022-12-20T10:08:05;100070.72;;;6.31;62.20
74079;BME280;62437;51.544;-3.276;2022-12-20T10:10:41;100074.94;;;6.05;63.58
74079;BME280;62437;51.544;-3.276;2022-12-20T10:12:58;100079.26;;;5.56;64.29
74079;BME280;62437;51.544;-3.276;2022-12-20T10:15:20;100082.09;;;5.52;64.06
74079;BME280;62437;51.544;-3.276;2022-12-20T10:18:00;100086.97;;;5.53;64.87
74079;BME280;62437;51.544;-3.276;2022-12-20T10:20:25;100084.49;;;5.71;64.49
74079;BME280;62437;51.544;-3.276;2022-12-20T10:22:39;100084.60;;;5.50;65.02
74079;BME280;62437;51.544;-3.276;2022-12-20T10:25:12;100087.97;;;5.45;64.87
74079;BME280;62437;51.544;-3.276;2022-12-20T10:27:26;100083.35;;;5.74;64.50
74079;BME280;62437;51.544;-3.276;2022-12-20T10:29:52;100090.22;;;5.40;66.02
74079;BME280;62437;51.544;-3.276;2022-12-20T10:32:20;100090.76;;;5.19;66.32
74079;BME280;62437;51.544;-3.276;2022-12-20T10:34:51;100093.94;;;4.75;69.40
74079;BME280;62437;51.544;-3.276;2022-12-20T10:37:11;100096.35;;;5.28;66.20
74079;BME280;62437;51.544;-3.276;2022-12-20T10:39:41;100099.37;;;4.76;69.17
74079;BME280;62437;51.544;-3.276;2022-12-20T10:42:01;100106.86;;;4.56;70.87
74079;BME280;62437;51.544;-3.276;2022-12-20T10:44:28;100099.21;;;4.73;68.49
74079;BME280;62437;51.544;-3.276;2022-12-20T10:46:54;100101.08;;;4.69;71.87
74079;BME280;62437;51.544;-3.276;2022-12-20T10:49:24;100098.96;;;4.91;67.65
74079;BME280;62437;51.544;-3.276;2022-12-20T10:51:51;100095.62;;;5.36;67.33
74079;BME280;62437;51.544;-3.276;2022-12-20T10:54:21;100095.30;;;4.80;67.89
74079;BME280;62437;51.544;-3.276;2022-12-20T10:56:35;100091.17;;;5.10;66.88
74079;BME280;62437;51.544;-3.276;2022-12-20T10:59:03;100095.91;;;5.14;67.20
74079;BME280;62437;51.544;-3.276;2022-12-20T11:01:29;100097.14;;;4.95;68.31
74079;BME280;62437;51.544;-3.276;2022-12-20T11:03:57;100094.74;;;5.56;64.93
74079;BME280;62437;51.544;-3.276;2022-12-20T11:06:26;100095.23;;;5.19;66.88
74079;BME280;62437;51.544;-3.276;2022-12-20T11:08:44;100098.73;;;5.00;67.17
74079;BME280;62437;51.544;-3.276;2022-12-20T11:11:13;100101.41;;;5.49;66.35
74079;BME280;62437;51.544;-3.276;2022-12-20T11:13:35;100101.30;;;5.38;66.49
74079;BME280;62437;51.544;-3.276;2022-12-20T11:16:01;100102.63;;;5.23;68.27
74079;BME280;62437;51.544;-3.276;2022-12-20T11:18:37;100099.44;;;5.36;67.95
74079;BME280;62437;51.544;-3.276;2022-12-20T11:20:59;100100.43;;;5.14;67.87
74079;BME280;62437;51.544;-3.276;2022-12-20T11:23:25;100098.48;;;5.42;66.75
74079;BME280;62437;51.544;-3.276;2022-12-20T11:25:58;100093.38;;;4.30;75.48
74079;BME280;62437;51.544;-3.276;2022-12-20T11:28:23;100094.00;;;5.45;66.21
74079;BME280;62437;51.544;-3.276;2022-12-20T11:30:41;100090.21;;;5.87;66.07
74079;BME280;62437;51.544;-3.276;2022-12-20T11:33:16;100091.29;;;5.27;66.82
74079;BME280;62437;51.544;-3.276;2022-12-20T11:35:33;100088.30;;;5.20;75.53
74079;BME280;62437;51.544;-3.276;2022-12-20T11:38:01;100086.28;;;5.39;70.12
74079;BME280;62437;51.544;-3.276;2022-12-20T11:40:25;100084.19;;;5.42;67.42
74079;BME280;62437;51.544;-3.276;2022-12-20T11:42:56;100077.81;;;6.00;64.99
74079;BME280;62437;51.544;-3.276;2022-12-20T11:45:17;100082.74;;;5.72;66.01
74079;BME280;62437;51.544;-3.276;2022-12-20T11:47:50;100082.31;;;5.45;65.33
74079;BME280;62437;51.544;-3.276;2022-12-20T11:52:34;100086.62;;;5.79;66.04
74079;BME280;62437;51.544;-3.276;2022-12-20T11:55:01;100088.29;;;4.59;73.74
74079;BME280;62437;51.544;-3.276;2022-12-20T11:57:24;100089.32;;;5.62;68.03
74079;BME280;62437;51.544;-3.276;2022-12-20T11:59:46;100086.67;;;5.44;67.61
74079;BME280;62437;51.544;-3.276;2022-12-20T12:02:12;100085.33;;;4.45;73.28
74079;BME280;62437;51.544;-3.276;2022-12-20T12:04:40;100083.10;;;5.31;68.72
74079;BME280;62437;51.544;-3.276;2022-12-20T12:07:03;100087.58;;;5.27;72.69
74079;BME280;62437;51.544;-3.276;2022-12-20T12:09:32;100084.04;;;5.33;72.93
74079;BME280;62437;51.544;-3.276;2022-12-20T12:11:59;100083.36;;;5.67;66.86
74079;BME280;62437;51.544;-3.276;2022-12-20T12:14:30;100083.68;;;5.88;64.54
74079;BME280;62437;51.544;-3.276;2022-12-20T12:16:47;100082.18;;;5.12;73.66
74079;BME280;62437;51.544;-3.276;2022-12-20T12:19:11;100088.15;;;4.54;77.46
74079;BME280;62437;51.544;-3.276;2022-12-20T12:21:38;100085.03;;;5.33;67.76
74079;BME280;62437;51.544;-3.276;2022-12-20T12:24:06;100085.09;;;4.73;74.98
74079;BME280;62437;51.544;-3.276;2022-12-20T12:26:28;100078.53;;;5.48;68.15
74079;BME280;62437;51.544;-3.276;2022-12-20T12:28:55;100075.36;;;5.00;70.14
74079;BME280;62437;51.544;-3.276;2022-12-20T12:31:25;100082.72;;;5.40;67.63
74079;BME280;62437;51.544;-3.276;2022-12-20T12:33:49;100084.38;;;5.33;74.03
74079;BME280;62437;51.544;-3.276;2022-12-20T12:43:43;100078.14;;;6.44;63.64
74079;BME280;62437;51.544;-3.276;2022-12-20T12:45:56;100081.21;;;6.14;64.46
74079;BME280;62437;51.544;-3.276;2022-12-20T12:48:21;100075.59;;;6.05;65.48
74079;BME280;62437;51.544;-3.276;2022-12-20T12:50:46;100072.27;;;5.93;65.63
74079;BME280;62437;51.544;-3.276;2022-12-20T12:53:13;100068.91;;;5.73;65.27
74079;BME280;62437;51.544;-3.276;2022-12-20T12:55:40;100070.46;;;5.79;68.18
74079;BME280;62437;51.544;-3.276;2022-12-20T12:58:13;100066.22;;;6.45;62.42
74079;BME280;62437;51.544;-3.276;2022-12-20T13:02:53;100061.99;;;5.58;72.20
74079;BME280;62437;51.544;-3.276;2022-12-20T13:05:29;100062.69;;;5.99;66.44
74079;BME280;62437;51.544;-3.276;2022-12-20T13:07:44;100055.51;;;6.15;65.44
74079;BME280;62437;51.544;-3.276;2022-12-20T13:15:10;100064.66;;;6.10;66.25